sensor_id;sensor_type;location;lat;lon;timestamp;temperature;humidity
9482;DHT22;4779;48.062;11.672;2023-06-14T00:01:11;14.90;74.70
9482;DHT22;4779;48.062;11.672;2023-06-14T00:03:40;14.90;74.30
9482;DHT22;4779;48.062;11.672;2023-06-14T00:06:07;14.80;74.30
9482;DHT22;4779;48.062;11.672;2023-06-14T00:08:34;14.70;74.40
9482;DHT22;4779;48.062;11.672;2023-06-14T00:11:01;14.70;75.10
9482;DHT22;4779;48.062;11.672;2023-06-14T00:13:28;14.60;75.40
9482;DHT22;4779;48.062;11.672;2023-06-14T00:15:55;14.60;74.70
9482;DHT22;4779;48.062;11.672;2023-06-14T00:18:21;14.60;75.30
9482;DHT22;4779;48.062;11.672;2023-06-14T00:20:51;14.60;75.70
9482;DHT22;4779;48.062;11.672;2023-06-14T00:23:18;14.60;75.30
9482;DHT22;4779;48.062;11.672;2023-06-14T00:25:46;14.50;74.80
9482;DHT22;4779;48.062;11.672;2023-06-14T00:28:13;14.50;74.80
9482;DHT22;4779;48.062;11.672;2023-06-14T00:30:40;14.40;75.90
9482;DHT22;4779;48.062;11.672;2023-06-14T00:33:09;14.30;75.90
9482;DHT22;4779;48.062;11.672;2023-06-14T00:35:36;14.30;75.90
9482;DHT22;4779;48.062;11.672;2023-06-14T00:38:04;14.20;76.40
9482;DHT22;4779;48.062;11.672;2023-06-14T00:40:31;14.20;77.20
9482;DHT22;4779;48.062;11.672;2023-06-14T00:43:00;14.20;76.50
9482;DHT22;4779;48.062;11.672;2023-06-14T00:45:27;14.20;76.70
9482;DHT22;4779;48.062;11.672;2023-06-14T00:47:54;14.20;76.20
9482;DHT22;4779;48.062;11.672;2023-06-14T00:50:22;14.20;77.90
9482;DHT22;4779;48.062;11.672;2023-06-14T00:52:50;14.20;76.60
9482;DHT22;4779;48.062;11.672;2023-06-14T00:55:18;14.30;76.30
9482;DHT22;4779;48.062;11.672;2023-06-14T00:57:45;14.30;76.20
9482;DHT22;4779;48.062;11.672;2023-06-14T01:00:13;14.20;76.40
9482;DHT22;4779;48.062;11.672;2023-06-14T01:02:40;14.20;76.50
9482;DHT22;4779;48.062;11.672;2023-06-14T01:05:08;14.20;76.50
9482;DHT22;4779;48.062;11.672;2023-06-14T01:07:46;14.20;76.10
9482;DHT22;4779;48.062;11.672;2023-06-14T01:10:34;14.20;76.20
9482;DHT22;4779;48.062;11.672;2023-06-14T01:15:47;14.00;75.80
9482;DHT22;4779;48.062;11.672;2023-06-14T01:18:15;14.00;76.00
9482;DHT22;4779;48.062;11.672;2023-06-14T01:20:45;13.90;77.00
9482;DHT22;4779;48.062;11.672;2023-06-14T01:23:14;13.90;77.20
9482;DHT22;4779;48.062;11.672;2023-06-14T01:25:40;13.80;77.50
9482;DHT22;4779;48.062;11.672;2023-06-14T01:28:10;13.80;78.60
9482;DHT22;4779;48.062;11.672;2023-06-14T01:30:40;13.70;77.50
9482;DHT22;4779;48.062;11.672;2023-06-14T01:33:12;13.70;78.20
9482;DHT22;4779;48.062;11.672;2023-06-14T01:35:39;13.70;78.10
9482;DHT22;4779;48.062;11.672;2023-06-14T01:38:07;13.70;78.20
9482;DHT22;4779;48.062;11.672;2023-06-14T01:40:36;13.60;78.50
9482;DHT22;4779;48.062;11.672;2023-06-14T01:43:04;13.50;78.60
9482;DHT22;4779;48.062;11.672;2023-06-14T01:45:33;13.50;78.30
9482;DHT22;4779;48.062;11.672;2023-06-14T01:48:00;13.50;77.80
9482;DHT22;4779;48.062;11.672;2023-06-14T01:50:28;13.30;78.20
9482;DHT22;4779;48.062;11.672;2023-06-14T01:52:56;13.40;79.00
9482;DHT22;4779;48.062;11.672;2023-06-14T01:55:23;13.30;79.40
9482;DHT22;4779;48.062;11.672;2023-06-14T01:57:52;13.40;79.70
9482;DHT22;4779;48.062;11.672;2023-06-14T02:00:20;13.40;79.00
9482;DHT22;4779;48.062;11.672;2023-06-14T02:02:47;13.40;78.90
9482;DHT22;4779;48.062;11.672;2023-06-14T02:05:14;13.30;79.20
9482;DHT22;4779;48.062;11.672;2023-06-14T02:07:44;13.30;80.00
9482;DHT22;4779;48.062;11.672;2023-06-14T02:10:11;13.30;78.70
9482;DHT22;4779;48.062;11.672;2023-06-14T02:12:38;13.30;79.00
9482;DHT22;4779;48.062;11.672;2023-06-14T02:15:07;13.30;78.80
9482;DHT22;4779;48.062;11.672;2023-06-14T02:17:35;13.20;78.90
9482;DHT22;4779;48.062;11.672;2023-06-14T02:20:03;13.20;79.10
9482;DHT22;4779;48.062;11.672;2023-06-14T02:22:31;13.20;78.90
9482;DHT22;4779;48.062;11.672;2023-06-14T02:24:58;13.20;78.50
9482;DHT22;4779;48.062;11.672;2023-06-14T02:27:25;13.00;79.60
9482;DHT22;4779;48.062;11.672;2023-06-14T02:29:52;13.00;79.40
9482;DHT22;4779;48.062;11.672;2023-06-14T02:32:20;13.00;79.80
9482;DHT22;4779;48.062;11.672;2023-06-14T02:34:47;13.00;78.90
9482;DHT22;4779;48.062;11.672;2023-06-14T02:37:15;13.00;78.70
9482;DHT22;4779;48.062;11.672;2023-06-14T02:39:42;12.90;79.60
9482;DHT22;4779;48.062;11.672;2023-06-14T02:42:09;12.90;94.40
9482;DHT22;4779;48.062;11.672;2023-06-14T02:44:36;13.00;99.20
9482;DHT22;4779;48.062;11.672;2023-06-14T02:47:03;13.00;90.00
9482;DHT22;4779;48.062;11.672;2023-06-14T02:49:31;12.90;79.60
9482;DHT22;4779;48.062;11.672;2023-06-14T02:51:59;12.90;89.30
9482;DHT22;4779;48.062;11.672;2023-06-14T02:54:25;12.90;89.70
9482;DHT22;4779;48.062;11.672;2023-06-14T02:56:52;12.90;80.50
9482;DHT22;4779;48.062;11.672;2023-06-14T02:59:19;12.80;87.20
9482;DHT22;4779;48.062;11.672;2023-06-14T03:01:47;12.70;80.00
9482;DHT22;4779;48.062;11.672;2023-06-14T03:04:13;12.60;80.00
9482;DHT22;4779;48.062;11.672;2023-06-14T03:06:43;12.70;79.90
9482;DHT22;4779;48.062;11.672;2023-06-14T03:09:16;12.60;79.70
9482;DHT22;4779;48.062;11.672;2023-06-14T03:11:45;12.60;80.20
9482;DHT22;4779;48.062;11.672;2023-06-14T03:14:13;12.60;80.30
9482;DHT22;4779;48.062;11.672;2023-06-14T03:16:40;12.50;80.50
9482;DHT22;4779;48.062;11.672;2023-06-14T03:19:08;12.50;80.90
9482;DHT22;4779;48.062;11.672;2023-06-14T03:21:35;12.50;81.10
9482;DHT22;4779;48.062;11.672;2023-06-14T03:24:03;12.50;80.80
9482;DHT22;4779;48.062;11.672;2023-06-14T03:26:30;12.50;81.80
9482;DHT22;4779;48.062;11.672;2023-06-14T03:28:59;12.50;80.90
9482;DHT22;4779;48.062;11.672;2023-06-14T03:31:26;12.40;81.10
9482;DHT22;4779;48.062;11.672;2023-06-14T03:33:58;12.40;81.50
9482;DHT22;4779;48.062;11.672;2023-06-14T03:36:25;12.40;81.80
9482;DHT22;4779;48.062;11.672;2023-06-14T03:38:53;12.50;82.00
9482;DHT22;4779;48.062;11.672;2023-06-14T03:41:21;12.40;81.60
9482;DHT22;4779;48.062;11.672;2023-06-14T03:43:48;12.40;81.70
9482;DHT22;4779;48.062;11.672;2023-06-14T03:46:15;12.40;81.10
9482;DHT22;4779;48.062;11.672;2023-06-14T03:48:42;12.40;81.70
9482;DHT22;4779;48.062;11.672;2023-06-14T03:51:09;12.40;82.10
9482;DHT22;4779;48.062;11.672;2023-06-14T03:53:36;12.50;81.90
9482;DHT22;4779;48.062;11.672;2023-06-14T03:56:03;12.50;81.60
9482;DHT22;4779;48.062;11.672;2023-06-14T03:58:31;12.50;82.20
9482;DHT22;4779;48.062;11.672;2023-06-14T04:00:58;12.40;81.60
9482;DHT22;4779;48.062;11.672;2023-06-14T04:03:26;12.40;82.10
9482;DHT22;4779;48.062;11.672;2023-06-14T04:05:55;12.50;83.10
9482;DHT22;4779;48.062;11.672;2023-06-14T04:08:25;12.40;81.80
9482;DHT22;4779;48.062;11.672;2023-06-14T04:10:52;12.50;82.70
9482;DHT22;4779;48.062;11.672;2023-06-14T04:13:19;12.50;81.40
9482;DHT22;4779;48.062;11.672;2023-06-14T04:15:47;12.60;81.10
9482;DHT22;4779;48.062;11.672;2023-06-14T04:18:14;12.60;80.40
9482;DHT22;4779;48.062;11.672;2023-06-14T04:20:41;12.60;79.70
9482;DHT22;4779;48.062;11.672;2023-06-14T04:23:12;12.70;80.80
9482;DHT22;4779;48.062;11.672;2023-06-14T04:25:39;12.70;81.10
9482;DHT22;4779;48.062;11.672;2023-06-14T04:28:10;12.70;80.90
9482;DHT22;4779;48.062;11.672;2023-06-14T04:30:37;12.70;81.40
9482;DHT22;4779;48.062;11.672;2023-06-14T04:33:07;12.70;80.70
9482;DHT22;4779;48.062;11.672;2023-06-14T04:35:35;12.80;80.50
9482;DHT22;4779;48.062;11.672;2023-06-14T04:38:02;12.80;79.40
9482;DHT22;4779;48.062;11.672;2023-06-14T04:40:30;12.80;79.10
9482;DHT22;4779;48.062;11.672;2023-06-14T04:42:59;12.80;79.30
9482;DHT22;4779;48.062;11.672;2023-06-14T04:45:26;12.90;79.70
9482;DHT22;4779;48.062;11.672;2023-06-14T04:47:58;13.00;79.80
9482;DHT22;4779;48.062;11.672;2023-06-14T04:50:27;13.20;80.60
9482;DHT22;4779;48.062;11.672;2023-06-14T04:52:55;13.10;79.90
9482;DHT22;4779;48.062;11.672;2023-06-14T04:55:22;12.90;80.10
9482;DHT22;4779;48.062;11.672;2023-06-14T04:57:50;12.90;80.00
9482;DHT22;4779;48.062;11.672;2023-06-14T05:00:19;13.00;79.70
9482;DHT22;4779;48.062;11.672;2023-06-14T05:02:46;13.10;79.60
9482;DHT22;4779;48.062;11.672;2023-06-14T05:05:16;13.10;80.40
9482;DHT22;4779;48.062;11.672;2023-06-14T05:07:44;13.10;80.50
9482;DHT22;4779;48.062;11.672;2023-06-14T05:10:12;13.40;84.90
9482;DHT22;4779;48.062;11.672;2023-06-14T05:12:38;13.50;80.70
9482;DHT22;4779;48.062;11.672;2023-06-14T05:15:07;13.70;80.70
9482;DHT22;4779;48.062;11.672;2023-06-14T05:17:34;13.90;80.50
9482;DHT22;4779;48.062;11.672;2023-06-14T05:20:02;14.10;79.60
9482;DHT22;4779;48.062;11.672;2023-06-14T05:22:29;14.40;80.00
9482;DHT22;4779;48.062;11.672;2023-06-14T05:24:58;14.40;78.70
9482;DHT22;4779;48.062;11.672;2023-06-14T05:27:25;14.50;79.00
9482;DHT22;4779;48.062;11.672;2023-06-14T05:29:51;14.70;80.10
9482;DHT22;4779;48.062;11.672;2023-06-14T05:32:21;14.80;79.50
9482;DHT22;4779;48.062;11.672;2023-06-14T05:34:48;14.80;78.50
9482;DHT22;4779;48.062;11.672;2023-06-14T05:37:15;15.00;78.40
9482;DHT22;4779;48.062;11.672;2023-06-14T05:39:43;14.90;77.30
9482;DHT22;4779;48.062;11.672;2023-06-14T05:42:11;14.90;77.80
9482;DHT22;4779;48.062;11.672;2023-06-14T05:44:38;14.90;78.40
9482;DHT22;4779;48.062;11.672;2023-06-14T05:47:05;14.90;78.50
9482;DHT22;4779;48.062;11.672;2023-06-14T05:49:32;15.00;79.40
9482;DHT22;4779;48.062;11.672;2023-06-14T05:51:59;15.10;79.20
9482;DHT22;4779;48.062;11.672;2023-06-14T05:54:25;15.20;79.60
9482;DHT22;4779;48.062;11.672;2023-06-14T05:56:52;15.40;80.10
9482;DHT22;4779;48.062;11.672;2023-06-14T05:59:21;15.60;78.70
9482;DHT22;4779;48.062;11.672;2023-06-14T06:01:48;15.80;78.40
9482;DHT22;4779;48.062;11.672;2023-06-14T06:04:15;15.90;78.60
9482;DHT22;4779;48.062;11.672;2023-06-14T06:06:42;16.10;78.50
9482;DHT22;4779;48.062;11.672;2023-06-14T06:09:08;16.20;78.70
9482;DHT22;4779;48.062;11.672;2023-06-14T06:11:35;16.20;78.20
9482;DHT22;4779;48.062;11.672;2023-06-14T06:14:02;16.30;78.40
9482;DHT22;4779;48.062;11.672;2023-06-14T06:16:30;16.60;79.60
9482;DHT22;4779;48.062;11.672;2023-06-14T06:18:57;16.70;78.00
9482;DHT22;4779;48.062;11.672;2023-06-14T06:21:24;17.00;78.40
9482;DHT22;4779;48.062;11.672;2023-06-14T06:23:51;17.10;77.40
9482;DHT22;4779;48.062;11.672;2023-06-14T06:26:18;17.30;77.70
9482;DHT22;4779;48.062;11.672;2023-06-14T06:28:45;17.50;78.50
9482;DHT22;4779;48.062;11.672;2023-06-14T06:31:12;17.70;76.90
9482;DHT22;4779;48.062;11.672;2023-06-14T06:33:40;17.80;78.10
9482;DHT22;4779;48.062;11.672;2023-06-14T06:36:07;17.90;75.90
9482;DHT22;4779;48.062;11.672;2023-06-14T06:38:34;18.00;77.30
9482;DHT22;4779;48.062;11.672;2023-06-14T06:41:01;18.00;75.20
9482;DHT22;4779;48.062;11.672;2023-06-14T06:43:28;17.90;75.80
9482;DHT22;4779;48.062;11.672;2023-06-14T06:45:55;18.10;79.20
9482;DHT22;4779;48.062;11.672;2023-06-14T06:48:22;18.20;77.20
9482;DHT22;4779;48.062;11.672;2023-06-14T06:50:50;18.50;76.00
9482;DHT22;4779;48.062;11.672;2023-06-14T06:53:17;18.50;73.70
9482;DHT22;4779;48.062;11.672;2023-06-14T06:55:45;18.70;73.60
9482;DHT22;4779;48.062;11.672;2023-06-14T06:58:12;18.90;75.80
9482;DHT22;4779;48.062;11.672;2023-06-14T07:00:39;19.00;75.30
9482;DHT22;4779;48.062;11.672;2023-06-14T07:03:06;19.10;72.50
9482;DHT22;4779;48.062;11.672;2023-06-14T07:05:33;19.20;72.80
9482;DHT22;4779;48.062;11.672;2023-06-14T07:08:01;19.20;72.10
9482;DHT22;4779;48.062;11.672;2023-06-14T07:10:29;19.40;75.30
9482;DHT22;4779;48.062;11.672;2023-06-14T07:12:56;19.60;72.80
9482;DHT22;4779;48.062;11.672;2023-06-14T07:15:23;19.70;73.60
9482;DHT22;4779;48.062;11.672;2023-06-14T07:17:50;19.90;93.10
9482;DHT22;4779;48.062;11.672;2023-06-14T07:20:18;20.00;91.90
9482;DHT22;4779;48.062;11.672;2023-06-14T07:22:46;20.10;90.40
9482;DHT22;4779;48.062;11.672;2023-06-14T07:25:15;20.20;72.80
9482;DHT22;4779;48.062;11.672;2023-06-14T07:27:46;20.20;73.70
9482;DHT22;4779;48.062;11.672;2023-06-14T07:30:13;20.40;70.90
9482;DHT22;4779;48.062;11.672;2023-06-14T07:32:40;20.50;70.60
9482;DHT22;4779;48.062;11.672;2023-06-14T07:35:07;20.60;71.20
9482;DHT22;4779;48.062;11.672;2023-06-14T07:37:34;20.70;69.50
9482;DHT22;4779;48.062;11.672;2023-06-14T07:40:02;20.60;67.70
9482;DHT22;4779;48.062;11.672;2023-06-14T07:42:33;20.70;69.70
9482;DHT22;4779;48.062;11.672;2023-06-14T07:45:01;21.00;68.50
9482;DHT22;4779;48.062;11.672;2023-06-14T07:47:28;21.10;70.20
9482;DHT22;4779;48.062;11.672;2023-06-14T07:49:55;21.30;67.50
9482;DHT22;4779;48.062;11.672;2023-06-14T07:52:22;21.40;67.40
9482;DHT22;4779;48.062;11.672;2023-06-14T07:54:48;21.40;69.00
9482;DHT22;4779;48.062;11.672;2023-06-14T07:57:15;21.50;68.20
9482;DHT22;4779;48.062;11.672;2023-06-14T07:59:44;21.50;67.40
9482;DHT22;4779;48.062;11.672;2023-06-14T08:02:10;21.60;64.90
9482;DHT22;4779;48.062;11.672;2023-06-14T08:04:38;21.70;61.90
9482;DHT22;4779;48.062;11.672;2023-06-14T08:07:06;21.80;61.20
9482;DHT22;4779;48.062;11.672;2023-06-14T08:09:33;22.00;63.60
9482;DHT22;4779;48.062;11.672;2023-06-14T08:11:59;21.90;60.50
9482;DHT22;4779;48.062;11.672;2023-06-14T08:14:26;22.00;60.80
9482;DHT22;4779;48.062;11.672;2023-06-14T08:16:55;22.10;62.80
9482;DHT22;4779;48.062;11.672;2023-06-14T08:19:22;22.20;61.60
9482;DHT22;4779;48.062;11.672;2023-06-14T08:21:49;22.30;62.20
9482;DHT22;4779;48.062;11.672;2023-06-14T08:24:16;22.30;59.20
9482;DHT22;4779;48.062;11.672;2023-06-14T08:26:44;22.40;59.90
9482;DHT22;4779;48.062;11.672;2023-06-14T08:29:11;22.50;60.30
9482;DHT22;4779;48.062;11.672;2023-06-14T08:31:38;22.70;58.10
9482;DHT22;4779;48.062;11.672;2023-06-14T08:34:06;22.90;55.60
9482;DHT22;4779;48.062;11.672;2023-06-14T08:36:33;23.00;52.70
9482;DHT22;4779;48.062;11.672;2023-06-14T08:39:01;23.10;55.10
9482;DHT22;4779;48.062;11.672;2023-06-14T08:41:28;23.30;54.10
9482;DHT22;4779;48.062;11.672;2023-06-14T08:43:56;23.40;54.00
9482;DHT22;4779;48.062;11.672;2023-06-14T08:46:25;23.50;55.30
9482;DHT22;4779;48.062;11.672;2023-06-14T08:48:55;23.70;53.40
9482;DHT22;4779;48.062;11.672;2023-06-14T08:51:25;23.90;54.00
9482;DHT22;4779;48.062;11.672;2023-06-14T08:53:59;24.00;53.90
9482;DHT22;4779;48.062;11.672;2023-06-14T08:56:27;24.10;54.70
9482;DHT22;4779;48.062;11.672;2023-06-14T08:58:55;24.20;53.90
9482;DHT22;4779;48.062;11.672;2023-06-14T09:01:22;24.40;54.70
9482;DHT22;4779;48.062;11.672;2023-06-14T09:03:49;24.60;54.40
9482;DHT22;4779;48.062;11.672;2023-06-14T09:06:17;24.50;54.20
9482;DHT22;4779;48.062;11.672;2023-06-14T09:08:46;24.60;55.80
9482;DHT22;4779;48.062;11.672;2023-06-14T09:11:15;24.60;51.10
9482;DHT22;4779;48.062;11.672;2023-06-14T09:13:44;24.70;52.10
9482;DHT22;4779;48.062;11.672;2023-06-14T09:16:12;25.00;52.30
9482;DHT22;4779;48.062;11.672;2023-06-14T09:18:40;25.00;49.70
9482;DHT22;4779;48.062;11.672;2023-06-14T09:21:10;25.00;51.10
9482;DHT22;4779;48.062;11.672;2023-06-14T09:23:38;25.20;51.10
9482;DHT22;4779;48.062;11.672;2023-06-14T09:26:10;25.30;50.40
9482;DHT22;4779;48.062;11.672;2023-06-14T09:28:41;25.40;52.10
9482;DHT22;4779;48.062;11.672;2023-06-14T09:31:10;25.70;51.60
9482;DHT22;4779;48.062;11.672;2023-06-14T09:33:37;25.70;53.10
9482;DHT22;4779;48.062;11.672;2023-06-14T09:36:04;25.90;51.60
9482;DHT22;4779;48.062;11.672;2023-06-14T09:38:36;26.10;48.30
9482;DHT22;4779;48.062;11.672;2023-06-14T09:41:04;26.20;52.10
9482;DHT22;4779;48.062;11.672;2023-06-14T09:43:33;26.30;49.40
9482;DHT22;4779;48.062;11.672;2023-06-14T09:46:01;26.40;49.20
9482;DHT22;4779;48.062;11.672;2023-06-14T09:48:27;26.60;49.80
9482;DHT22;4779;48.062;11.672;2023-06-14T09:50:55;26.80;49.00
9482;DHT22;4779;48.062;11.672;2023-06-14T09:53:25;26.90;50.10
9482;DHT22;4779;48.062;11.672;2023-06-14T09:55:52;27.00;48.40
9482;DHT22;4779;48.062;11.672;2023-06-14T09:58:23;27.00;49.10
9482;DHT22;4779;48.062;11.672;2023-06-14T10:00:54;27.10;50.10
9482;DHT22;4779;48.062;11.672;2023-06-14T10:03:25;27.30;49.40
9482;DHT22;4779;48.062;11.672;2023-06-14T10:05:55;27.40;51.10
9482;DHT22;4779;48.062;11.672;2023-06-14T10:08:28;27.60;50.30
9482;DHT22;4779;48.062;11.672;2023-06-14T10:10:58;27.60;48.90
9482;DHT22;4779;48.062;11.672;2023-06-14T10:13:26;27.70;47.90
9482;DHT22;4779;48.062;11.672;2023-06-14T10:16:00;27.60;50.00
9482;DHT22;4779;48.062;11.672;2023-06-14T10:18:35;27.90;48.90
9482;DHT22;4779;48.062;11.672;2023-06-14T10:21:11;28.10;47.80
9482;DHT22;4779;48.062;11.672;2023-06-14T10:23:42;28.10;48.80
9482;DHT22;4779;48.062;11.672;2023-06-14T10:26:18;28.30;50.40
9482;DHT22;4779;48.062;11.672;2023-06-14T10:28:56;28.40;46.70
9482;DHT22;4779;48.062;11.672;2023-06-14T10:31:40;28.60;45.30
9482;DHT22;4779;48.062;11.672;2023-06-14T10:34:07;28.70;45.90
9482;DHT22;4779;48.062;11.672;2023-06-14T10:36:34;28.70;46.10
9482;DHT22;4779;48.062;11.672;2023-06-14T10:39:04;28.00;46.40
9482;DHT22;4779;48.062;11.672;2023-06-14T10:41:35;27.80;50.80
9482;DHT22;4779;48.062;11.672;2023-06-14T10:44:38;27.90;49.10
9482;DHT22;4779;48.062;11.672;2023-06-14T10:47:27;27.50;47.10
9482;DHT22;4779;48.062;11.672;2023-06-14T10:49:55;27.10;49.70
9482;DHT22;4779;48.062;11.672;2023-06-14T10:52:24;27.70;52.40
9482;DHT22;4779;48.062;11.672;2023-06-14T10:55:08;27.60;47.20
9482;DHT22;4779;48.062;11.672;2023-06-14T10:57:38;27.00;48.50
9482;DHT22;4779;48.062;11.672;2023-06-14T11:00:07;27.00;50.50
9482;DHT22;4779;48.062;11.672;2023-06-14T11:05:52;28.50;54.50
9482;DHT22;4779;48.062;11.672;2023-06-14T11:08:47;29.10;49.60
9482;DHT22;4779;48.062;11.672;2023-06-14T11:11:18;29.30;48.10
9482;DHT22;4779;48.062;11.672;2023-06-14T11:13:48;29.60;46.60
9482;DHT22;4779;48.062;11.672;2023-06-14T11:16:16;29.80;48.50
9482;DHT22;4779;48.062;11.672;2023-06-14T11:18:45;29.70;49.40
9482;DHT22;4779;48.062;11.672;2023-06-14T11:21:16;29.60;48.10
9482;DHT22;4779;48.062;11.672;2023-06-14T11:23:49;29.30;45.30
9482;DHT22;4779;48.062;11.672;2023-06-14T11:26:24;28.60;60.80
9482;DHT22;4779;48.062;11.672;2023-06-14T11:28:56;28.70;59.20
9482;DHT22;4779;48.062;11.672;2023-06-14T11:31:23;29.10;60.40
9482;DHT22;4779;48.062;11.672;2023-06-14T11:33:53;29.50;53.40
9482;DHT22;4779;48.062;11.672;2023-06-14T11:36:21;29.60;46.70
9482;DHT22;4779;48.062;11.672;2023-06-14T11:38:48;29.80;46.70
9482;DHT22;4779;48.062;11.672;2023-06-14T11:41:15;29.90;50.40
9482;DHT22;4779;48.062;11.672;2023-06-14T11:43:41;30.00;48.90
9482;DHT22;4779;48.062;11.672;2023-06-14T11:46:12;29.60;50.40
9482;DHT22;4779;48.062;11.672;2023-06-14T11:48:42;28.90;51.50
9482;DHT22;4779;48.062;11.672;2023-06-14T11:51:10;28.90;50.80
9482;DHT22;4779;48.062;11.672;2023-06-14T11:53:37;28.90;50.30
9482;DHT22;4779;48.062;11.672;2023-06-14T11:56:05;29.30;48.50
9482;DHT22;4779;48.062;11.672;2023-06-14T11:58:32;29.60;50.70
9482;DHT22;4779;48.062;11.672;2023-06-14T12:00:59;29.60;47.50
9482;DHT22;4779;48.062;11.672;2023-06-14T12:03:26;29.80;51.00
9482;DHT22;4779;48.062;11.672;2023-06-14T12:06:04;29.90;50.70
9482;DHT22;4779;48.062;11.672;2023-06-14T12:08:34;29.80;50.30
9482;DHT22;4779;48.062;11.672;2023-06-14T12:11:11;29.70;49.10
9482;DHT22;4779;48.062;11.672;2023-06-14T12:13:39;29.60;47.10
9482;DHT22;4779;48.062;11.672;2023-06-14T12:16:07;29.30;47.00
9482;DHT22;4779;48.062;11.672;2023-06-14T12:18:36;29.50;47.60
9482;DHT22;4779;48.062;11.672;2023-06-14T12:21:04;29.80;48.40
9482;DHT22;4779;48.062;11.672;2023-06-14T12:23:47;29.90;48.40
9482;DHT22;4779;48.062;11.672;2023-06-14T12:26:15;29.90;46.90
9482;DHT22;4779;48.062;11.672;2023-06-14T12:28:42;29.90;47.60
9482;DHT22;4779;48.062;11.672;2023-06-14T12:31:10;30.00;48.00
9482;DHT22;4779;48.062;11.672;2023-06-14T12:33:38;30.20;47.50
9482;DHT22;4779;48.062;11.672;2023-06-14T12:36:06;30.20;45.50
9482;DHT22;4779;48.062;11.672;2023-06-14T12:38:34;30.10;49.00
9482;DHT22;4779;48.062;11.672;2023-06-14T12:41:02;30.20;47.50
9482;DHT22;4779;48.062;11.672;2023-06-14T12:43:29;30.10;47.40
9482;DHT22;4779;48.062;11.672;2023-06-14T12:45:56;30.20;47.30
9482;DHT22;4779;48.062;11.672;2023-06-14T12:48:23;29.90;43.30
9482;DHT22;4779;48.062;11.672;2023-06-14T12:50:49;29.80;46.70
9482;DHT22;4779;48.062;11.672;2023-06-14T12:53:16;29.60;45.10
9482;DHT22;4779;48.062;11.672;2023-06-14T12:55:43;29.60;47.00
9482;DHT22;4779;48.062;11.672;2023-06-14T12:58:12;29.40;44.20
9482;DHT22;4779;48.062;11.672;2023-06-14T13:00:39;29.50;46.80
9482;DHT22;4779;48.062;11.672;2023-06-14T13:03:06;29.70;47.40
9482;DHT22;4779;48.062;11.672;2023-06-14T13:05:33;29.70;45.70
9482;DHT22;4779;48.062;11.672;2023-06-14T13:08:00;29.80;44.20
9482;DHT22;4779;48.062;11.672;2023-06-14T13:10:27;30.20;45.20
9482;DHT22;4779;48.062;11.672;2023-06-14T13:12:57;30.20;45.70
9482;DHT22;4779;48.062;11.672;2023-06-14T13:15:27;30.10;45.60
9482;DHT22;4779;48.062;11.672;2023-06-14T13:17:54;29.80;44.50
9482;DHT22;4779;48.062;11.672;2023-06-14T13:20:21;29.10;45.00
9482;DHT22;4779;48.062;11.672;2023-06-14T13:22:47;28.40;46.00
9482;DHT22;4779;48.062;11.672;2023-06-14T13:25:15;27.60;44.20
9482;DHT22;4779;48.062;11.672;2023-06-14T13:27:41;27.10;45.80
9482;DHT22;4779;48.062;11.672;2023-06-14T13:30:09;27.10;51.10
9482;DHT22;4779;48.062;11.672;2023-06-14T13:32:38;27.40;47.10
9482;DHT22;4779;48.062;11.672;2023-06-14T13:35:05;27.30;46.50
9482;DHT22;4779;48.062;11.672;2023-06-14T13:37:32;27.40;45.60
9482;DHT22;4779;48.062;11.672;2023-06-14T13:39:59;27.90;48.30
9482;DHT22;4779;48.062;11.672;2023-06-14T13:42:26;28.40;47.20
9482;DHT22;4779;48.062;11.672;2023-06-14T13:44:53;28.80;47.90
9482;DHT22;4779;48.062;11.672;2023-06-14T13:47:20;28.60;46.70
9482;DHT22;4779;48.062;11.672;2023-06-14T13:49:48;27.80;45.40
9482;DHT22;4779;48.062;11.672;2023-06-14T13:52:15;27.40;45.50
9482;DHT22;4779;48.062;11.672;2023-06-14T13:54:42;27.40;48.20
9482;DHT22;4779;48.062;11.672;2023-06-14T13:57:09;27.90;45.00
9482;DHT22;4779;48.062;11.672;2023-06-14T13:59:38;28.20;44.70
9482;DHT22;4779;48.062;11.672;2023-06-14T14:02:05;28.40;43.90
9482;DHT22;4779;48.062;11.672;2023-06-14T14:04:33;28.50;45.40
9482;DHT22;4779;48.062;11.672;2023-06-14T14:07:03;28.20;45.50
9482;DHT22;4779;48.062;11.672;2023-06-14T14:09:31;28.10;45.30
9482;DHT22;4779;48.062;11.672;2023-06-14T14:11:58;28.30;46.50
9482;DHT22;4779;48.062;11.672;2023-06-14T14:14:25;28.60;46.90
9482;DHT22;4779;48.062;11.672;2023-06-14T14:16:53;28.70;45.10
9482;DHT22;4779;48.062;11.672;2023-06-14T14:19:21;28.70;47.20
9482;DHT22;4779;48.062;11.672;2023-06-14T14:21:48;28.20;44.20
9482;DHT22;4779;48.062;11.672;2023-06-14T14:24:16;27.90;45.50
9482;DHT22;4779;48.062;11.672;2023-06-14T14:26:43;27.50;46.50
9482;DHT22;4779;48.062;11.672;2023-06-14T14:29:13;27.00;46.30
9482;DHT22;4779;48.062;11.672;2023-06-14T14:31:40;26.80;48.00
9482;DHT22;4779;48.062;11.672;2023-06-14T14:34:07;26.70;47.50
9482;DHT22;4779;48.062;11.672;2023-06-14T14:36:34;26.90;47.70
9482;DHT22;4779;48.062;11.672;2023-06-14T14:39:03;27.20;50.00
9482;DHT22;4779;48.062;11.672;2023-06-14T14:41:31;27.30;44.90
9482;DHT22;4779;48.062;11.672;2023-06-14T14:43:58;27.40;47.10
9482;DHT22;4779;48.062;11.672;2023-06-14T14:46:26;27.50;47.50
9482;DHT22;4779;48.062;11.672;2023-06-14T14:48:53;27.40;44.90
9482;DHT22;4779;48.062;11.672;2023-06-14T14:51:20;27.30;46.60
9482;DHT22;4779;48.062;11.672;2023-06-14T14:53:47;27.00;46.80
9482;DHT22;4779;48.062;11.672;2023-06-14T14:56:14;26.70;46.10
9482;DHT22;4779;48.062;11.672;2023-06-14T14:58:42;26.50;47.20
9482;DHT22;4779;48.062;11.672;2023-06-14T15:01:09;26.60;46.20
9482;DHT22;4779;48.062;11.672;2023-06-14T15:03:37;26.50;48.30
9482;DHT22;4779;48.062;11.672;2023-06-14T15:06:04;26.40;50.80
9482;DHT22;4779;48.062;11.672;2023-06-14T15:08:31;26.30;50.00
9482;DHT22;4779;48.062;11.672;2023-06-14T15:10:57;25.90;46.50
9482;DHT22;4779;48.062;11.672;2023-06-14T15:13:24;25.80;47.30
9482;DHT22;4779;48.062;11.672;2023-06-14T15:15:53;26.00;48.80
9482;DHT22;4779;48.062;11.672;2023-06-14T15:18:19;26.10;49.30
9482;DHT22;4779;48.062;11.672;2023-06-14T15:20:47;26.10;50.70
9482;DHT22;4779;48.062;11.672;2023-06-14T15:23:14;26.10;48.30
9482;DHT22;4779;48.062;11.672;2023-06-14T15:25:45;26.10;46.70
9482;DHT22;4779;48.062;11.672;2023-06-14T15:28:13;26.00;47.40
9482;DHT22;4779;48.062;11.672;2023-06-14T15:30:40;25.80;46.20
9482;DHT22;4779;48.062;11.672;2023-06-14T15:33:10;25.90;48.20
9482;DHT22;4779;48.062;11.672;2023-06-14T15:35:38;25.80;47.40
9482;DHT22;4779;48.062;11.672;2023-06-14T15:38:05;25.70;46.10
9482;DHT22;4779;48.062;11.672;2023-06-14T15:40:32;25.60;47.90
9482;DHT22;4779;48.062;11.672;2023-06-14T15:43:00;25.70;49.20
9482;DHT22;4779;48.062;11.672;2023-06-14T15:45:29;25.50;47.80
9482;DHT22;4779;48.062;11.672;2023-06-14T15:47:57;25.50;47.20
9482;DHT22;4779;48.062;11.672;2023-06-14T15:50:26;25.60;48.00
9482;DHT22;4779;48.062;11.672;2023-06-14T15:52:53;25.30;48.00
9482;DHT22;4779;48.062;11.672;2023-06-14T15:55:20;25.20;47.30
9482;DHT22;4779;48.062;11.672;2023-06-14T15:57:47;25.30;49.90